This is the latest recevied weather packets stored in our database for station/object KR4BRU. If no packets are shown the sender has not sent any weather packets the latest 10 day(s).
| Time | Temp. | Humidity | Pressure | Rain* | Wind** | Luminosity | Snow |
|---|---|---|---|---|---|---|---|
| 1777972097 | 12.78° C | 80% | 1009.9 hPa | 0 mm | - | 0 W/m² | - |
| 1777971492 | 12.78° C | 79% | 1009.7 hPa | 0 mm | - | 0 W/m² | - |
| 1777970887 | 13.33° C | 78% | 1009.8 hPa | 0 mm | - | 0 W/m² | - |
| 1777970283 | 13.33° C | 78% | 1009.8 hPa | 0 mm | - | 0 W/m² | - |
| 1777969682 | 13.33° C | 77% | 1009.9 hPa | 0 mm | - | 0 W/m² | - |
| 1777969081 | 13.33° C | 77% | 1009.8 hPa | 0 mm | - | 0 W/m² | - |
| 1777968480 | 13.33° C | 76% | 1010 hPa | 0 mm | - | 0 W/m² | - |
| 1777967878 | 13.33° C | 75% | 1009.9 hPa | 0 mm | - | 0 W/m² | - |
| 1777967272 | 13.89° C | 74% | 1009.9 hPa | 0 mm | - | 0 W/m² | - |
| 1777966667 | 13.89° C | 74% | 1010 hPa | 0 mm | - | 0 W/m² | - |
| 1777966067 | 13.89° C | 74% | 1010 hPa | 0 mm | - | 0 W/m² | - |
| 1777965465 | 13.89° C | 73% | 1009.9 hPa | 0 mm | - | 0 W/m² | - |
| 1777964859 | 13.89° C | 72% | 1010 hPa | 0 mm | - | 0 W/m² | - |
| 1777964257 | 14.44° C | 71% | 1010 hPa | 0 mm | - | 0 W/m² | - |
| 1777963657 | 14.44° C | 70% | 1010 hPa | 0 mm | - | 0 W/m² | - |
| 1777963058 | 15° C | 69% | 1010 hPa | 0 mm | - | 0 W/m² | - |
| 1777962456 | 15° C | 67% | 1010.1 hPa | 0 mm | - | 0 W/m² | - |
| 1777961857 | 15.56° C | 66% | 1010.3 hPa | 0 mm | - | 0 W/m² | - |
| 1777961252 | 16.11° C | 65% | 1010.3 hPa | 0 mm | - | 0 W/m² | - |
| 1777960650 | 16.67° C | 62% | 1010.3 hPa | 0 mm | - | 0 W/m² | - |
| 1777960050 | 17.22° C | 61% | 1010.3 hPa | 0 mm | - | 0 W/m² | - |
| 1777959446 | 16.67° C | 63% | 1010.3 hPa | 0 mm | - | 0 W/m² | - |
| 1777958845 | 16.67° C | 63% | 1010.4 hPa | 0 mm | - | 0 W/m² | - |
| 1777958245 | 16.67° C | 63% | 1010 hPa | 0 mm | - | 0 W/m² | - |
| 1777957640 | 15.56° C | 67% | 1009.9 hPa | 0 mm | - | 0 W/m² | - |
* Rain latest hour (hover to see other rain measurements)
** Current wind speed in m/s (hover to see current wind gust speed)